Time;durP1;ratioP1;P1;durP2;ratioP2;P2;SDS_P1;SDS_P2;PMS_P1;PMS_P2;Temp;Humidity;BMP_temperature;BMP_pressure;BME280_temperature;BME280_humidity;BME280_pressure;Samples;Min_cycle;Max_cycle;Signal;HPM_P1;HPM_P2
2023/04/28 00:02:08;;;;;;;;;4.00;4.00;;;;;18.35;70.29;100489.09;5074512;27;45637;-75
2023/04/28 00:04:34;;;;;;;;;4.00;4.00;;;;;18.35;70.36;100491.75;5074598;27;45491;-78
2023/04/28 00:10:21;;;;;;;;;3.00;3.00;;;;;18.32;70.51;100499.22;5073960;28;46180;-76
2023/04/28 00:12:46;;;;;;;;;4.00;4.00;;;;;18.31;70.19;100487.78;5074723;27;46015;-78
2023/04/28 00:15:12;;;;;;;;;3.00;3.00;;;;;18.31;70.09;100492.25;5074315;27;45722;-77
2023/04/28 00:17:37;;;;;;;;;4.25;4.00;;;;;18.32;70.17;100480.66;5089809;27;45918;-77
2023/04/28 00:20:04;;;;;;;;;3.75;3.75;;;;;18.33;70.72;100490.28;5074061;27;46451;-75
2023/04/28 00:22:30;;;;;;;;;3.00;3.00;;;;;18.28;70.77;100489.94;5074149;27;46189;-78
2023/04/28 00:24:55;;;;;;;;;5.00;4.50;;;;;18.29;71.17;100487.13;5074517;27;45699;-77
2023/04/28 00:27:20;;;;;;;;;5.00;3.50;;;;;18.27;70.71;100475.84;5074406;28;45641;-76
2023/04/28 00:29:46;;;;;;;;;4.25;3.75;;;;;18.28;71.16;100487.28;5074334;27;45666;-79
2023/04/28 00:32:12;;;;;;;;;3.00;3.00;;;;;18.28;71.25;100481.97;5074114;28;46181;-77
2023/04/28 00:34:37;;;;;;;;;3.50;3.50;;;;;18.30;71.26;100483.44;5074084;27;45723;-79
2023/04/28 00:40:32;;;;;;;;;3.00;3.00;;;;;18.32;71.09;100486.78;5063957;28;46008;-76
2023/04/28 00:42:58;;;;;;;;;3.00;3.00;;;;;18.31;70.91;100498.38;5074020;27;45922;-75
2023/04/28 00:45:23;;;;;;;;;4.50;3.00;;;;;18.31;71.20;100484.28;5073716;27;45794;-77
2023/04/28 00:47:48;;;;;;;;;3.75;3.75;;;;;18.32;71.03;100475.34;5074104;27;45534;-76
2023/04/28 00:50:15;;;;;;;;;4.00;4.00;;;;;18.34;71.20;100476.03;5073857;27;45765;-76
2023/04/28 00:52:42;;;;;;;;;2.75;2.75;;;;;18.31;71.49;100476.34;5073693;28;46445;-77
2023/04/28 00:55:08;;;;;;;;;3.25;3.00;;;;;18.30;70.75;100478.16;5073610;27;45664;-79
2023/04/28 00:57:35;;;;;;;;;3.00;3.00;;;;;18.31;71.22;100479.81;5073626;27;45655;-77
2023/04/28 01:00:01;;;;;;;;;3.00;2.50;;;;;18.28;71.35;100477.50;5073786;27;46543;-76
2023/04/28 01:02:28;;;;;;;;;4.00;4.00;;;;;18.30;71.85;100486.09;5073665;27;45953;-74
2023/04/28 01:04:55;;;;;;;;;2.00;2.00;;;;;18.27;71.75;100477.66;5088429;27;45763;-79
2023/04/28 01:10:45;;;;;;;;;3.25;3.00;;;;;18.19;71.56;100488.25;5073006;28;45641;-78
2023/04/28 01:13:11;;;;;;;;;3.00;2.00;;;;;18.18;71.61;100486.59;5071343;28;47900;-76
2023/04/28 01:15:36;;;;;;;;;2.50;2.50;;;;;18.14;72.24;100483.41;5073411;27;45570;-78
2023/04/28 01:18:02;;;;;;;;;2.00;2.00;;;;;18.11;71.79;100477.59;5073296;27;45787;-77
2023/04/28 01:20:27;;;;;;;;;3.00;2.00;;;;;18.10;72.31;100475.94;5073285;27;46333;-78
2023/04/28 01:22:53;;;;;;;;;2.50;2.00;;;;;18.04;72.16;100470.28;5073543;27;46450;-78
2023/04/28 01:25:18;;;;;;;;;2.50;2.00;;;;;18.02;72.05;100474.09;5073490;27;46119;-79
2023/04/28 01:27:43;;;;;;;;;2.50;2.00;;;;;18.02;72.84;100477.59;5073324;27;46004;-78
2023/04/28 01:30:09;;;;;;;;;1.75;1.75;;;;;18.01;72.71;100473.28;5072908;27;45678;-78
2023/04/28 01:32:35;;;;;;;;;2.00;2.00;;;;;18.02;72.39;100466.97;5073116;27;46019;-77
2023/04/28 01:35:00;;;;;;;;;2.00;2.00;;;;;18.04;72.50;100472.09;5073144;27;45557;-76
2023/04/28 01:40:47;;;;;;;;;3.00;3.00;;;;;18.02;73.02;100482.06;5068760;28;45858;-77
2023/04/28 01:43:13;;;;;;;;;2.00;2.00;;;;;17.97;72.48;100473.75;5073100;27;45672;-77
2023/04/28 01:45:38;;;;;;;;;3.00;2.00;;;;;17.95;73.10;100473.91;5073008;27;45994;-78
2023/04/28 01:48:04;;;;;;;;;3.00;3.00;;;;;17.95;72.82;100478.38;5072878;27;46085;-78
2023/04/28 01:50:29;;;;;;;;;2.75;2.75;;;;;17.91;73.15;100477.03;5073044;27;46278;-78
2023/04/28 01:56:17;;;;;;;;;3.25;3.00;;;;;17.95;73.24;100473.91;5072670;28;45684;-79
2023/04/28 01:58:42;;;;;;;;;2.75;2.75;;;;;17.96;73.51;100472.94;5072742;27;45910;-78
2023/04/28 02:01:07;;;;;;;;;3.00;3.00;;;;;17.98;73.15;100478.88;5072869;27;46284;-79
2023/04/28 02:03:33;;;;;;;;;1.50;1.50;;;;;17.99;73.54;100477.91;5073024;27;45781;-78
2023/04/28 02:05:58;;;;;;;;;2.00;2.00;;;;;17.97;73.59;100468.47;5072961;27;45678;-76
2023/04/28 02:08:23;;;;;;;;;2.00;2.00;;;;;17.98;73.27;100476.22;5072924;27;45597;-76
2023/04/28 02:10:49;;;;;;;;;2.75;2.75;;;;;17.98;73.14;100489.47;5072684;27;45658;-79
2023/04/28 02:13:16;;;;;;;;;2.75;2.50;;;;;17.95;73.40;100478.38;5072858;27;45644;-79
2023/04/28 02:15:41;;;;;;;;;2.00;2.00;;;;;17.94;73.33;100479.38;5072654;27;45503;-76
2023/04/28 02:18:07;;;;;;;;;1.50;1.50;;;;;17.91;73.49;100477.03;5072598;27;45527;-79
2023/04/28 02:20:33;;;;;;;;;2.50;2.50;;;;;17.90;73.71;100472.72;5072537;28;46782;-78
2023/04/28 02:26:20;;;;;;;;;2.00;2.00;;;;;17.85;73.60;100478.50;5072217;28;45881;-77
2023/04/28 02:28:45;;;;;;;;;1.00;1.00;;;;;17.87;73.81;100478.31;5072763;28;45808;-78
2023/04/28 02:31:12;;;;;;;;;2.00;2.00;;;;;17.86;73.93;100484.66;5072275;27;46402;-78
2023/04/28 02:33:38;;;;;;;;;2.00;2.00;;;;;17.84;73.81;100495.41;5072511;27;45521;-74
2023/04/28 02:36:04;;;;;;;;;2.00;2.00;;;;;17.83;73.67;100495.53;5072416;27;45604;-74
2023/04/28 02:41:52;;;;;;;;;2.00;2.00;;;;;17.82;74.09;100485.94;5061155;28;46041;-75
2023/04/28 02:44:18;;;;;;;;;3.00;2.00;;;;;17.79;74.26;100491.56;5072551;27;45941;-77
2023/04/28 02:46:44;;;;;;;;;1.50;1.50;;;;;17.80;73.94;100490.56;5072296;28;45817;-78
2023/04/28 02:49:09;;;;;;;;;1.25;1.25;;;;;17.82;74.34;100483.28;5072245;27;45531;-78
2023/04/28 02:51:35;;;;;;;;;2.00;2.00;;;;;17.83;74.31;100482.28;5071923;27;45901;-78
2023/04/28 02:54:00;;;;;;;;;1.00;1.00;;;;;17.81;73.73;100471.03;5072300;27;45681;-79
2023/04/28 02:56:25;;;;;;;;;1.75;1.00;;;;;17.80;74.48;100472.03;5072034;27;45616;-76
2023/04/28 02:58:51;;;;;;;;;1.00;0.75;;;;;17.80;74.09;100475.50;5072040;28;45515;-76
2023/04/28 03:01:17;;;;;;;;;1.25;1.00;;;;;17.84;74.19;100470.72;5072468;27;45641;-80
2023/04/28 03:03:42;;;;;;;;;1.00;1.00;;;;;17.84;74.29;100468.06;5074397;27;45687;-79
2023/04/28 03:06:07;;;;;;;;;1.00;1.00;;;;;17.84;74.40;100468.88;5075531;27;45613;-79
2023/04/28 03:11:55;;;;;;;;;0.00;0.00;;;;;17.82;73.80;100470.03;5075584;28;45796;-78
2023/04/28 03:14:20;;;;;;;;;0.00;0.00;;;;;17.81;73.85;100468.38;5075678;27;46493;-80
2023/04/28 03:16:46;;;;;;;;;1.00;1.00;;;;;17.78;73.89;100469.53;5076092;27;45742;-80
2023/04/28 03:19:11;;;;;;;;;0.00;0.00;;;;;17.74;74.08;100472.66;5075636;27;45859;-79
2023/04/28 03:21:36;;;;;;;;;1.00;0.25;;;;;17.70;74.19;100472.16;5075404;27;45760;-80
2023/04/28 03:24:02;;;;;;;;;1.00;1.00;;;;;17.68;74.26;100468.81;5075282;27;46295;-77
2023/04/28 03:26:27;;;;;;;;;0.00;0.00;;;;;17.68;74.45;100466.16;5075605;27;45964;-78
2023/04/28 03:28:53;;;;;;;;;1.00;1.00;;;;;17.65;74.76;100469.16;5075368;27;45771;-80
2023/04/28 03:31:18;;;;;;;;;0.25;0.25;;;;;17.62;74.33;100456.19;5075272;27;45604;-79
2023/04/28 03:33:46;;;;;;;;;0.25;0.00;;;;;17.61;74.54;100459.81;5075336;27;45742;-77
2023/04/28 03:36:12;;;;;;;;;1.00;1.00;;;;;17.58;75.03;100463.59;5075543;27;45605;-79
2023/04/28 03:42:00;;;;;;;;;1.00;1.00;;;;;17.51;74.74;100470.50;5073086;28;45632;-78
2023/04/28 03:44:25;;;;;;;;;0.00;0.00;;;;;17.44;74.96;100468.63;5075017;27;45622;-78
2023/04/28 03:46:50;;;;;;;;;0.00;0.00;;;;;17.39;75.36;100471.75;5075126;28;45657;-80
2023/04/28 03:49:16;;;;;;;;;0.00;0.00;;;;;17.36;75.49;100458.84;5075277;27;45797;-78
2023/04/28 03:51:41;;;;;;;;;0.50;0.00;;;;;17.39;75.68;100470.91;5074729;27;45495;-74
2023/04/28 03:57:28;;;;;;;;;1.00;1.00;;;;;17.40;75.21;100477.88;5074688;28;45763;-77
2023/04/28 03:59:53;;;;;;;;;0.00;0.00;;;;;17.35;75.25;100478.34;5075400;27;45552;-81
2023/04/28 04:02:19;;;;;;;;;1.00;1.00;;;;;17.30;75.55;100469.22;5074821;27;46611;-75
2023/04/28 04:04:44;;;;;;;;;1.50;1.00;;;;;17.29;75.47;100468.38;5074833;27;46310;-75
2023/04/28 04:07:10;;;;;;;;;0.00;0.00;;;;;17.28;75.98;100472.00;5074491;27;45662;-76
2023/04/28 04:09:35;;;;;;;;;0.00;0.00;;;;;17.28;75.38;100465.88;5074870;28;45439;-78
2023/04/28 04:12:01;;;;;;;;;1.00;1.00;;;;;17.30;75.90;100474.50;5074577;27;46430;-79
2023/04/28 04:14:26;;;;;;;;;0.00;0.00;;;;;17.32;75.80;100470.75;5073446;27;46415;-76
2023/04/28 04:16:51;;;;;;;;;0.00;0.00;;;;;17.35;75.65;100482.81;5074705;27;45529;-76
2023/04/28 04:19:17;;;;;;;;;0.00;0.00;;;;;17.38;75.69;100467.44;5090004;27;45787;-77
2023/04/28 04:21:42;;;;;;;;;0.00;0.00;;;;;17.43;75.43;100473.13;5074622;27;46336;-79
2023/04/28 04:27:29;;;;;;;;;0.00;0.00;;;;;17.51;74.96;100470.50;5074282;28;45699;-79
2023/04/28 04:29:55;;;;;;;;;0.00;0.00;;;;;17.56;75.29;100475.34;5074589;28;45598;-80
2023/04/28 04:32:20;;;;;;;;;0.00;0.00;;;;;17.57;74.77;100480.47;5074279;28;45500;-81
2023/04/28 04:34:46;;;;;;;;;0.00;0.00;;;;;17.58;74.87;100482.16;5074298;28;45790;-78
2023/04/28 04:37:12;;;;;;;;;0.00;0.00;;;;;17.60;75.07;100482.84;5074219;28;45538;-79
2023/04/28 04:43:00;;;;;;;;;0.25;0.00;;;;;17.64;74.42;100482.53;5064189;28;46103;-78
2023/04/28 04:45:25;;;;;;;;;0.00;0.00;;;;;17.61;74.62;100476.56;5074244;27;45579;-79
2023/04/28 04:47:51;;;;;;;;;0.25;0.25;;;;;17.67;74.90;100476.91;5073966;27;45665;-80
2023/04/28 04:50:17;;;;;;;;;1.00;1.00;;;;;17.66;74.39;100484.03;5074290;28;45709;-78
2023/04/28 04:52:42;;;;;;;;;1.25;0.00;;;;;17.66;74.63;100491.13;5073771;27;46282;-79
2023/04/28 04:55:10;;;;;;;;;0.00;0.00;;;;;17.66;74.68;100489.31;5073447;28;45844;-80
2023/04/28 04:57:35;;;;;;;;;0.00;0.00;;;;;17.65;74.76;100495.63;5073789;27;45608;-76
2023/04/28 05:00:01;;;;;;;;;0.00;0.00;;;;;17.61;74.46;100483.66;5073958;27;45699;-79
2023/04/28 05:02:26;;;;;;;;;0.00;0.00;;;;;17.64;74.71;100496.63;5073898;27;45675;-76
2023/04/28 05:04:51;;;;;;;;;0.00;0.00;;;;;17.60;74.26;100485.47;5073744;27;45601;-78
2023/04/28 05:07:17;;;;;;;;;1.00;0.00;;;;;17.58;74.61;100500.69;5073684;27;45757;-79
2023/04/28 05:13:04;;;;;;;;;0.00;0.00;;;;;17.59;74.72;100502.41;5073281;28;46277;-79
2023/04/28 05:15:30;;;;;;;;;0.00;0.00;;;;;17.55;74.44;100508.09;5073550;27;45818;-79
2023/04/28 05:17:56;;;;;;;;;1.00;1.00;;;;;17.50;74.79;100510.41;5073483;27;45798;-78
2023/04/28 05:20:22;;;;;;;;;0.00;0.00;;;;;17.45;74.64;100508.22;5073377;28;45699;-79
2023/04/28 05:22:47;;;;;;;;;0.00;0.00;;;;;17.41;75.14;100500.75;5071504;28;47573;-79
2023/04/28 05:25:13;;;;;;;;;0.25;0.00;;;;;17.43;74.77;100502.25;5072676;27;46413;-78
2023/04/28 05:27:39;;;;;;;;;0.00;0.00;;;;;17.42;75.09;100508.53;5072626;28;45779;-80
2023/04/28 05:30:09;;;;;;;;;0.00;0.00;;;;;17.45;74.90;100510.03;5072900;27;45646;-79
2023/04/28 05:32:35;;;;;;;;;0.00;0.00;;;;;17.45;74.68;100510.03;5072542;27;47547;-79
2023/04/28 05:35:01;;;;;;;;;0.00;0.00;;;;;17.47;75.07;100505.41;5072610;28;45814;-82
2023/04/28 05:37:27;;;;;;;;;0.00;0.00;;;;;17.53;74.69;100508.28;5072825;27;45891;-80
2023/04/28 05:43:14;;;;;;;;;0.00;0.00;;;;;17.59;74.58;100504.19;5070073;28;46255;-80
2023/04/28 05:45:40;;;;;;;;;0.00;0.00;;;;;17.60;74.48;100509.34;5072372;28;46089;-81
2023/04/28 05:48:05;;;;;;;;;0.00;0.00;;;;;17.61;74.47;100521.59;5072548;27;45865;-81
2023/04/28 05:50:31;;;;;;;;;0.00;0.00;;;;;17.57;74.79;100512.28;5072649;27;45931;-81
2023/04/28 05:52:56;;;;;;;;;0.00;0.00;;;;;17.55;74.45;100508.94;5072597;27;45680;-81
2023/04/28 05:58:43;;;;;;;;;0.00;0.00;;;;;17.51;74.46;100512.91;5072040;28;45742;-80
2023/04/28 06:01:10;;;;;;;;;0.00;0.00;;;;;17.47;74.79;100511.56;5072592;28;45773;-80
2023/04/28 06:03:35;;;;;;;;;1.00;1.00;;;;;17.45;74.89;100515.34;5072061;27;46663;-81
2023/04/28 06:06:01;;;;;;;;;0.00;0.00;;;;;17.42;75.00;100521.78;5072251;27;45791;-81
2023/04/28 06:08:27;;;;;;;;;0.75;0.00;;;;;17.43;75.17;100518.16;5072253;27;45856;-79
2023/04/28 06:10:52;;;;;;;;;0.50;0.50;;;;;17.48;74.63;100515.88;5072283;27;45704;-81
2023/04/28 06:13:17;;;;;;;;;0.00;0.00;;;;;17.56;75.21;100512.44;5072424;27;46313;-80
2023/04/28 06:15:43;;;;;;;;;1.00;0.25;;;;;17.59;74.66;100525.38;5071955;27;45728;-81
2023/04/28 06:18:08;;;;;;;;;0.00;0.00;;;;;17.57;75.03;100527.34;5071956;28;45928;-81
2023/04/28 06:20:34;;;;;;;;;0.50;0.50;;;;;17.55;74.68;100519.53;5072796;27;45750;-79
2023/04/28 06:23:00;;;;;;;;;1.00;0.00;;;;;17.58;75.07;100524.53;5073504;27;45667;-80
2023/04/28 06:28:46;;;;;;;;;1.25;0.75;;;;;17.59;74.90;100528.91;5074584;28;45601;-79
2023/04/28 06:31:12;;;;;;;;;1.00;0.50;;;;;17.60;74.61;100529.69;5073259;27;45665;-80
2023/04/28 06:33:37;;;;;;;;;0.75;0.75;;;;;17.54;75.05;100536.41;5071861;27;45541;-81
2023/04/28 06:36:04;;;;;;;;;1.00;0.75;;;;;17.55;74.40;100532.78;5071838;27;46419;-81
2023/04/28 06:38:29;;;;;;;;;0.25;0.25;;;;;17.53;74.76;100524.19;5073561;27;45832;-81
2023/04/28 06:40:54;;;;;;;;;0.25;0.25;;;;;17.54;75.00;100519.72;5075476;27;45554;-79
2023/04/28 06:43:20;;;;;;;;;1.50;1.00;;;;;17.56;74.64;100525.66;5075155;27;45727;-80
2023/04/28 06:45:45;;;;;;;;;0.00;0.00;;;;;17.63;74.65;100524.09;5075467;27;45579;-79
2023/04/28 06:48:11;;;;;;;;;2.00;1.00;;;;;17.67;74.75;100527.25;5075016;27;45518;-77
2023/04/28 06:50:36;;;;;;;;;0.75;0.50;;;;;17.70;74.60;100535.75;5075331;27;45748;-81
2023/04/28 06:53:01;;;;;;;;;1.00;1.00;;;;;17.69;74.28;100538.53;5073516;28;47326;-81
2023/04/28 06:58:49;;;;;;;;;1.00;1.00;;;;;17.66;74.85;100546.78;5075045;28;45768;-81
2023/04/28 07:01:15;;;;;;;;;1.25;1.00;;;;;17.66;74.50;100547.63;5075461;27;45928;-79
2023/04/28 07:03:41;;;;;;;;;1.00;1.00;;;;;17.73;74.49;100555.78;5075177;27;46566;-81
2023/04/28 07:06:06;;;;;;;;;1.00;1.00;;;;;17.78;74.58;100548.19;5074811;28;46171;-78
2023/04/28 07:08:33;;;;;;;;;1.75;1.75;;;;;17.83;74.46;100551.19;5075112;27;45866;-80
2023/04/28 07:14:20;;;;;;;;;1.00;1.00;;;;;17.94;74.38;100540.34;5074542;28;46034;-81
2023/04/28 07:16:45;;;;;;;;;1.00;1.00;;;;;17.99;74.41;100552.13;5075046;27;45840;-79
2023/04/28 07:19:11;;;;;;;;;1.00;1.00;;;;;18.05;73.53;100555.97;5074663;28;45697;-75
2023/04/28 07:21:36;;;;;;;;;1.00;1.00;;;;;18.02;73.59;100545.69;5090194;27;45565;-80
2023/04/28 07:24:01;;;;;;;;;0.25;0.25;;;;;18.02;73.64;100551.81;5074492;27;46408;-79
2023/04/28 07:26:27;;;;;;;;;1.00;1.00;;;;;18.09;73.54;100551.16;5074719;27;46179;-80
2023/04/28 07:28:52;;;;;;;;;1.00;1.00;;;;;18.13;73.87;100563.97;5074703;27;45553;-79
2023/04/28 07:31:18;;;;;;;;;0.50;0.50;;;;;18.09;73.02;100554.66;5090399;27;45773;-80
2023/04/28 07:33:43;;;;;;;;;1.00;1.00;;;;;18.10;73.41;100561.63;5074751;27;45584;-82
2023/04/28 07:36:09;;;;;;;;;1.75;1.75;;;;;18.11;73.56;100565.94;5074679;27;46138;-79
2023/04/28 07:38:35;;;;;;;;;2.00;1.75;;;;;18.14;72.85;100557.66;5074365;27;45553;-81
2023/04/28 07:44:22;;;;;;;;;2.00;2.00;;;;;18.05;73.05;100566.56;5062991;28;45772;-81
2023/04/28 07:46:48;;;;;;;;;0.00;0.00;;;;;18.13;73.61;100571.09;5074510;28;45593;-80
2023/04/28 07:49:13;;;;;;;;;1.00;1.00;;;;;18.14;73.43;100570.13;5074380;27;45791;-81
2023/04/28 07:51:38;;;;;;;;;1.00;1.00;;;;;18.19;73.41;100565.97;5074610;27;45912;-80
2023/04/28 07:54:04;;;;;;;;;2.00;2.00;;;;;18.24;72.94;100570.81;5074070;27;45610;-78
2023/04/28 07:59:51;;;;;;;;;1.50;1.00;;;;;18.28;73.03;100566.84;5073919;28;45781;-80
2023/04/28 08:02:19;;;;;;;;;1.00;1.00;;;;;18.37;72.51;100569.38;5074696;27;45594;-81
2023/04/28 08:04:45;;;;;;;;;1.00;1.00;;;;;18.41;72.25;100580.47;5074432;27;45541;-81
2023/04/28 08:07:10;;;;;;;;;1.00;1.00;;;;;18.41;72.25;100578.66;5074174;27;45883;-82
2023/04/28 08:09:35;;;;;;;;;2.00;2.00;;;;;18.43;72.53;100575.84;5072269;28;46033;-80
2023/04/28 08:12:01;;;;;;;;;2.00;1.00;;;;;18.44;72.04;100578.34;5074384;27;45747;-81
2023/04/28 08:14:27;;;;;;;;;1.00;1.00;;;;;18.46;72.12;100578.22;5073946;27;46379;-80
2023/04/28 08:16:53;;;;;;;;;1.25;1.00;;;;;18.44;71.87;100573.06;5073655;28;46028;-80
2023/04/28 08:19:19;;;;;;;;;1.50;1.50;;;;;18.46;72.03;100581.66;5074496;27;46022;-80
2023/04/28 08:21:44;;;;;;;;;1.50;1.50;;;;;18.52;71.48;100585.50;5074673;27;45647;-79
2023/04/28 08:24:10;;;;;;;;;2.00;1.00;;;;;18.55;71.54;100576.44;5074584;28;45930;-79
2023/04/28 08:29:57;;;;;;;;;1.00;1.00;;;;;18.73;71.34;100585.94;5074137;28;45647;-79
2023/04/28 08:32:23;;;;;;;;;0.00;0.00;;;;;18.75;71.27;100583.94;5074717;27;45870;-81
2023/04/28 08:34:48;;;;;;;;;1.00;1.00;;;;;18.76;71.59;100595.41;5074532;27;45850;-80
2023/04/28 08:37:14;;;;;;;;;1.50;0.25;;;;;18.76;70.88;100582.13;5075221;27;45704;-78
2023/04/28 08:39:40;;;;;;;;;1.75;1.00;;;;;18.71;70.83;100584.44;5075204;27;45654;-80
2023/04/28 08:42:05;;;;;;;;;1.00;1.00;;;;;18.73;70.54;100585.13;5074841;27;45697;-80
2023/04/28 08:44:38;;;;;;;;;1.00;1.00;;;;;18.75;70.87;100585.78;5073924;27;45673;-77
2023/04/28 08:47:10;;;;;;;;;1.00;1.00;;;;;18.80;70.60;100594.91;5074024;27;45932;-78
2023/04/28 08:49:37;;;;;;;;;0.75;0.75;;;;;18.82;70.10;100594.75;5073910;27;45876;-80
2023/04/28 08:52:10;;;;;;;;;1.25;0.50;;;;;18.81;69.79;100590.44;5072953;28;45810;-79
2023/04/28 08:54:37;;;;;;;;;1.00;1.00;;;;;18.70;69.04;100610.16;5073888;28;46480;-79
2023/04/28 09:00:24;;;;;;;;;1.00;1.00;;;;;18.59;70.33;100594.53;5072862;28;45859;-81
2023/04/28 09:02:50;;;;;;;;;2.00;1.00;;;;;18.63;69.75;100601.16;5073953;27;45719;-77
2023/04/28 09:05:15;;;;;;;;;1.00;1.00;;;;;18.66;69.71;100602.69;5074036;27;45927;-79
2023/04/28 09:07:44;;;;;;;;;1.00;1.00;;;;;18.67;69.27;100604.34;5073587;27;45697;-79
2023/04/28 09:10:20;;;;;;;;;1.00;1.00;;;;;18.68;68.99;100600.66;5073529;27;45647;-79
2023/04/28 09:12:46;;;;;;;;;0.00;0.00;;;;;18.68;69.09;100606.81;5074223;27;45760;-79
2023/04/28 09:15:35;;;;;;;;;2.00;1.00;;;;;18.73;69.31;100606.34;5073522;27;45640;-78
2023/04/28 09:18:03;;;;;;;;;1.00;1.00;;;;;18.73;68.74;100591.22;5073339;27;46000;-80
2023/04/28 09:20:30;;;;;;;;;2.00;2.00;;;;;18.75;69.44;100607.84;5073415;27;45712;-77
2023/04/28 09:23:12;;;;;;;;;0.25;0.25;;;;;18.72;69.41;100602.03;5073929;27;45698;-78
2023/04/28 09:25:37;;;;;;;;;2.50;2.00;;;;;18.74;68.75;100600.88;5073114;28;45676;-79
2023/04/28 09:28:20;;;;;;;;;1.00;1.00;;;;;18.82;69.13;100605.38;5073284;27;45919;-80
2023/04/28 09:30:46;;;;;;;;;2.00;2.00;;;;;18.91;68.70;100612.34;5073453;27;45910;-79
2023/04/28 09:33:12;;;;;;;;;1.00;1.00;;;;;18.95;68.62;100612.88;5073735;27;45556;-79
2023/04/28 09:35:39;;;;;;;;;2.75;2.00;;;;;18.93;68.33;100607.72;5073102;28;45639;-80
2023/04/28 09:38:05;;;;;;;;;1.00;1.00;;;;;18.93;67.95;100607.72;5073050;27;45964;-79
2023/04/28 09:40:31;;;;;;;;;1.00;1.00;;;;;18.94;67.91;100609.41;5072810;28;45800;-79
2023/04/28 09:42:56;;;;;;;;;1.00;1.00;;;;;18.98;67.76;100602.75;5073393;27;45717;-78
2023/04/28 09:45:23;;;;;;;;;1.00;1.00;;;;;19.00;67.81;100605.25;5072485;27;45517;-79
2023/04/28 09:47:49;;;;;;;;;0.00;0.00;;;;;19.06;67.13;100602.75;5073119;27;46075;-79
2023/04/28 09:50:16;;;;;;;;;1.00;1.00;;;;;19.09;67.25;100609.56;5071536;28;45678;-81
2023/04/28 09:52:55;;;;;;;;;1.00;1.00;;;;;19.11;67.00;100600.44;5073157;28;45607;-81
2023/04/28 09:55:21;;;;;;;;;0.25;0.25;;;;;19.11;66.70;100618.22;5072689;27;45563;-77
2023/04/28 10:01:11;;;;;;;;;1.00;1.00;;;;;19.25;66.91;100612.25;5072509;28;45698;-80
2023/04/28 10:03:39;;;;;;;;;1.00;0.75;;;;;19.33;66.35;100622.88;5073112;28;45677;-81
2023/04/28 10:06:05;;;;;;;;;1.00;1.00;;;;;19.39;66.55;100622.22;5072850;27;45801;-81
2023/04/28 10:08:31;;;;;;;;;0.75;0.75;;;;;19.50;65.78;100621.09;5072928;27;45884;-79
2023/04/28 10:10:57;;;;;;;;;1.00;0.25;;;;;19.56;66.08;100610.63;5072956;27;45832;-80
2023/04/28 10:13:23;;;;;;;;;0.00;0.00;;;;;19.65;65.76;100616.75;5074718;27;45641;-79
2023/04/28 10:15:50;;;;;;;;;1.00;1.00;;;;;19.68;64.93;100617.28;5076335;28;45691;-79
2023/04/28 10:18:15;;;;;;;;;0.00;0.00;;;;;19.67;64.34;100622.75;5076409;27;45906;-81
2023/04/28 10:20:45;;;;;;;;;0.00;0.00;;;;;19.64;63.91;100617.78;5076355;27;45561;-79
2023/04/28 10:23:24;;;;;;;;;1.00;1.00;;;;;19.63;63.97;100621.44;5076696;27;45695;-81
2023/04/28 10:25:56;;;;;;;;;1.00;0.75;;;;;19.65;63.75;100622.91;5076080;28;46309;-81
2023/04/28 10:28:22;;;;;;;;;0.50;0.50;;;;;19.67;63.71;100623.56;5075945;27;47327;-82
2023/04/28 10:31:10;;;;;;;;;0.00;0.00;;;;;19.73;63.27;100621.25;5076414;27;45650;-81
2023/04/28 10:33:37;;;;;;;;;1.00;1.00;;;;;19.74;63.25;100620.25;5076273;28;45724;-79
2023/04/28 10:36:05;;;;;;;;;1.00;1.00;;;;;19.77;62.95;100634.03;5076125;28;46988;-80
2023/04/28 10:38:30;;;;;;;;;1.25;1.00;;;;;19.78;62.43;100633.03;5075419;27;46660;-79
2023/04/28 10:41:02;;;;;;;;;1.00;1.00;;;;;19.81;62.52;100635.34;5075943;27;45627;-81
2023/04/28 10:43:36;;;;;;;;;0.00;0.00;;;;;19.86;62.43;100625.06;5075884;27;45550;-81
2023/04/28 10:46:07;;;;;;;;;0.00;0.00;;;;;19.88;62.34;100633.69;5075859;28;45782;-80
2023/04/28 10:48:32;;;;;;;;;0.50;0.50;;;;;19.92;62.18;100632.34;5075790;27;46145;-80
2023/04/28 10:51:04;;;;;;;;;0.00;0.00;;;;;19.97;61.80;100627.34;5075594;27;45610;-76
2023/04/28 10:53:42;;;;;;;;;0.75;0.75;;;;;19.99;61.57;100630.69;5076009;27;45732;-79
2023/04/28 10:56:07;;;;;;;;;1.00;1.00;;;;;20.05;61.76;100627.34;5075430;28;45839;-78
2023/04/28 10:58:35;;;;;;;;;1.00;1.00;;;;;20.13;61.68;100616.66;5075294;27;45838;-82
2023/04/28 11:01:35;;;;;;;;;1.00;1.00;;;;;20.20;61.38;100631.97;5075575;28;45661;-79
2023/04/28 11:04:15;;;;;;;;;2.00;1.00;;;;;20.13;61.37;100628.34;5012965;28;45895;-79
2023/04/28 11:06:45;;;;;;;;;0.50;0.50;;;;;20.08;61.85;100634.16;5012575;28;46539;-79
2023/04/28 11:09:11;;;;;;;;;1.00;1.00;;;;;20.12;61.90;100632.81;5012528;28;46069;-80
2023/04/28 11:11:38;;;;;;;;;1.00;1.00;;;;;20.12;61.58;100632.81;5012550;28;45868;-81
2023/04/28 11:14:15;;;;;;;;;1.00;0.75;;;;;20.09;61.78;100620.69;5012687;28;45832;-80
2023/04/28 11:16:54;;;;;;;;;0.00;0.00;;;;;20.12;62.13;100624.84;5012415;28;46553;-80
2023/04/28 11:19:24;;;;;;;;;1.00;1.00;;;;;20.17;61.49;100635.81;5012388;28;46233;-78
2023/04/28 11:21:50;;;;;;;;;1.00;1.00;;;;;20.21;61.84;100639.78;5012686;28;45657;-80
2023/04/28 11:24:16;;;;;;;;;2.00;2.00;;;;;20.21;61.78;100626.47;5012152;28;45877;-81
2023/04/28 11:26:42;;;;;;;;;1.00;1.00;;;;;20.25;61.70;100621.63;5012290;28;45680;-77
2023/04/28 11:29:08;;;;;;;;;1.00;1.00;;;;;20.30;61.94;100622.78;5012306;28;45973;-78
2023/04/28 11:31:33;;;;;;;;;1.00;1.00;;;;;20.33;61.63;100616.31;5012397;28;45743;-79
2023/04/28 11:34:05;;;;;;;;;1.00;1.00;;;;;20.41;60.86;100618.94;5012888;28;46016;-80
2023/04/28 11:36:34;;;;;;;;;1.00;1.00;;;;;20.46;60.32;100613.94;5012398;28;46845;-80
2023/04/28 11:39:03;;;;;;;;;1.00;0.75;;;;;20.53;60.59;100609.59;5069045;28;46302;-82
2023/04/28 11:41:29;;;;;;;;;1.75;1.00;;;;;20.63;60.63;100602.22;5074793;27;45886;-80
2023/04/28 11:43:55;;;;;;;;;7.00;6.50;;;;;20.71;60.11;100601.34;5074685;27;45707;-78
2023/04/28 11:46:23;;;;;;;;;1.25;1.25;;;;;20.80;60.44;100597.63;5074760;27;45771;-80
2023/04/28 11:48:49;;;;;;;;;2.75;1.00;;;;;20.89;59.90;100609.91;5073528;28;47367;-81
2023/04/28 11:51:31;;;;;;;;;1.00;1.00;;;;;20.92;59.39;100598.91;5074818;27;45827;-81
2023/04/28 11:53:57;;;;;;;;;1.00;0.25;;;;;20.99;59.23;100599.03;5090421;27;45963;-81
2023/04/28 11:56:22;;;;;;;;;0.00;0.00;;;;;21.00;59.02;100601.50;5074558;27;46499;-78
2023/04/28 12:02:09;;;;;;;;;1.00;1.00;;;;;21.09;58.85;100603.13;5074362;28;45819;-79
2023/04/28 12:04:39;;;;;;;;;0.50;0.50;;;;;21.14;58.22;100603.44;5074411;27;45686;-81
2023/04/28 12:07:11;;;;;;;;;1.00;1.00;;;;;21.17;59.00;100595.09;5072746;28;47525;-76
2023/04/28 12:09:39;;;;;;;;;1.00;1.00;;;;;21.26;58.39;100604.69;5074431;28;46088;-81
2023/04/28 12:12:07;;;;;;;;;0.50;0.50;;;;;21.29;58.01;100600.84;5089966;27;45861;-80
2023/04/28 12:14:53;;;;;;;;;1.00;1.00;;;;;21.25;57.88;100604.88;5074537;27;45570;-78
2023/04/28 12:17:27;;;;;;;;;0.50;0.50;;;;;21.25;58.21;100597.69;5074276;27;46529;-81
2023/04/28 12:19:57;;;;;;;;;0.50;0.00;;;;;21.25;58.03;100595.03;5074234;27;46283;-80
2023/04/28 12:22:23;;;;;;;;;1.00;0.00;;;;;21.30;57.77;100599.81;5074261;27;45679;-80
2023/04/28 12:25:03;;;;;;;;;2.00;2.00;;;;;21.28;57.37;100599.16;5074491;27;45731;-79
2023/04/28 12:27:28;;;;;;;;;0.25;0.00;;;;;21.29;56.79;100603.50;5074076;27;45743;-76
2023/04/28 12:29:55;;;;;;;;;1.00;1.00;;;;;21.35;56.91;100598.28;5074116;27;45643;-80
2023/04/28 12:32:37;;;;;;;;;1.00;1.00;;;;;21.43;57.08;100600.03;5074141;28;45629;-80
2023/04/28 12:35:04;;;;;;;;;1.00;0.00;;;;;21.55;56.37;100605.78;5073363;27;45796;-78
2023/04/28 12:37:30;;;;;;;;;1.25;0.75;;;;;21.58;56.11;100600.94;5073809;27;46298;-76
2023/04/28 12:39:55;;;;;;;;;0.75;0.75;;;;;21.67;55.92;100602.50;5073862;27;45895;-81
2023/04/28 12:42:22;;;;;;;;;1.00;1.00;;;;;21.71;55.64;100609.13;5073939;27;45553;-78
2023/04/28 12:44:49;;;;;;;;;1.25;0.25;;;;;21.74;55.17;100610.63;5074003;27;45608;-80